Villa Rica, Georgia
Current Conditions -  °F | °C
As of 7:35 PM on Monday 24 Nov 2014 (Local Time) from KPUJ Reporting Station
Clear Clear  
Wind Chill: 61°   Ceiling: Unl
Heat Index: 61°   Visibility: 10mi
Dew Point: 48°   Wind: 8mph
Humidity: 63%   Direction: 310°NW
Pressure: 29.92"   Gusts: NA
Location:  33.73°N, 84.92°W
Report Text: KPUJ 250035Z AUTO 31007KT 10SM CLR 16/09 A2992 RMK AO2
Loading
Personal Weather Stations






























Interactive Weather Map New forecast layout! Learn more

10-Day Weather Forecast

Advertisements
Track Severe Weather on mobile